»·PEaware :: SWA1 KAUS-KHOU

SWA1 :: KAUS-KHOU

FLIGHT INFORMATION

Flight Status: Arrived
Operator:
Southwest Airlines
More flights by this operator :: More flights under this callsign
Pilot: Anonymous 14085 (14085)
Aircraft: BOEING 737-800
(B738)
More flights by this aircraft type
Origin: KAUS Austin Bergstrom Intl
United States
Destination: KHOU Hobby
United States
More flights between these airports :: More routes between these airports
Route: CWK5 ILEXY KIDDZ3
File this flight plan on PilotEdge
Remarks: PBN / A1B1C1D1S1S2 DOF / 170619 REG / N806SB OPR / SWA RMK / TCAS SIMBRIEF
Altitude:
(Current/Filed)
23,000ft
Speed:
(Current/Filed)
447kts
Departed: 18-Jun-17 06:22 PM
Arrived: 18-Jun-17 06:54 PM
Distance/Time
Traveled:
129nm/0:32
Distance/Time
To Go:
Arrived

Flight Plot

Page will automatically refresh every two minutes.

Flight plan parsing failed; only flown route is shown


Map Options




Map Legend


Flown Route
Filed Route
Departure Airport
Arrival Airport
Navaid (VOR, NDB)
Fix

Horizontal Profiles

Position Reports

Time Latitude Longitude Heading Altitude Ground
Speed
18-Jun-17 18:12 30.201718 -97.664553 360 485ft 0kts
18-Jun-17 18:13 30.201718 -97.664553 360 485ft 0kts
18-Jun-17 18:14 30.201718 -97.664553 360 485ft 0kts
18-Jun-17 18:15 30.201718 -97.664553 360 485ft 0kts
18-Jun-17 18:16 30.201718 -97.664553 360 485ft 0kts
18-Jun-17 18:17 30.201718 -97.664553 360 485ft 0kts
18-Jun-17 18:18 30.201718 -97.664553 359 485ft 0kts
18-Jun-17 18:19 30.201718 -97.664553 359 485ft 0kts
18-Jun-17 18:20 30.201718 -97.664553 360 485ft 0kts
18-Jun-17 18:21 30.201131 -97.664590 79 485ft 10kts
18-Jun-17 18:22 30.198728 -97.663808 167 485ft 7kts
18-Jun-17 18:23 30.199283 -97.658995 358 486ft 11kts
18-Jun-17 18:24 30.203594 -97.658909 58 486ft 8kts
18-Jun-17 18:25 30.201850 -97.657805 178 486ft 41kts
18-Jun-17 18:26 30.164612 -97.659427 191 1762ft 230kts
18-Jun-17 18:27 30.103044 -97.699888 196 5392ft 278kts
18-Jun-17 18:28 30.040556 -97.669494 115 9557ft 279kts
18-Jun-17 18:29 30.056893 -97.582537 55 12672ft 313kts
18-Jun-17 18:30 30.107934 -97.496170 55 15723ft 342kts
18-Jun-17 18:31 30.161464 -97.405408 55 19193ft 345kts
18-Jun-17 18:32 30.212832 -97.318114 55 22500ft 334kts
18-Jun-17 18:33 30.266816 -97.226156 55 23023ft 378kts
18-Jun-17 18:34 30.328829 -97.119353 60 22994ft 423kts
18-Jun-17 18:35 30.331546 -96.983744 111 23001ft 445kts
18-Jun-17 18:36 30.286687 -96.851115 111 22602ft 438kts
18-Jun-17 18:37 30.244683 -96.728216 111 21018ft 401kts
18-Jun-17 18:38 30.204042 -96.609732 111 19530ft 396kts
18-Jun-17 18:39 30.164073 -96.493605 111 17720ft 385kts
18-Jun-17 18:40 30.125213 -96.381066 111 15926ft 375kts
18-Jun-17 18:41 30.088771 -96.275871 111 14225ft 348kts
18-Jun-17 18:42 30.054601 -96.177538 111 12644ft 314kts
18-Jun-17 18:43 30.023181 -96.087364 111 11112ft 296kts
18-Jun-17 18:44 29.993246 -96.001665 111 9606ft 286kts
18-Jun-17 18:45 29.964087 -95.918385 111 8207ft 273kts
18-Jun-17 18:46 29.936730 -95.840429 111 7148ft 254kts
18-Jun-17 18:47 29.910578 -95.766067 111 6156ft 251kts
18-Jun-17 18:48 29.886061 -95.696503 111 5214ft 248kts
18-Jun-17 18:49 29.860666 -95.624601 111 4208ft 239kts
18-Jun-17 18:50 29.836328 -95.555825 111 3193ft 230kts
18-Jun-17 18:51 29.806763 -95.495507 122 2126ft 204kts
18-Jun-17 18:52 29.777065 -95.442180 124 2070ft 196kts
18-Jun-17 18:53 29.745641 -95.398808 132 2075ft 168kts
18-Jun-17 18:54 29.716186 -95.363099 133 1915ft 151kts
18-Jun-17 18:55 29.688497 -95.330198 134 1186ft 149kts
18-Jun-17 18:56 29.660144 -95.296481 134 401ft 145kts
18-Jun-17 18:57 29.639553 -95.271779 117 48ft 30kts
18-Jun-17 18:58 29.640568 -95.270856 313 48ft 25kts
18-Jun-17 18:59 29.645028 -95.276173 314 48ft 27kts
18-Jun-17 19:00 29.677241 -95.316807 134 916ft 148kts
18-Jun-17 19:01 29.649019 -95.283280 134 84ft 147kts
18-Jun-17 19:02 29.650453 -95.284986 134 117ft 147kts
18-Jun-17 19:03 29.648183 -95.278563 43 48ft 17kts
18-Jun-17 19:04 29.642571 -95.275586 130 48ft 79kts
18-Jun-17 19:05 29.652083 -95.275413 20 48ft 0kts
18-Jun-17 19:06 29.652083 -95.275414 20 48ft 0kts
18-Jun-17 19:07 29.652083 -95.275414 20 48ft 0kts
18-Jun-17 19:08 29.652083 -95.275414 20 48ft 0kts
18-Jun-17 19:09 29.652083 -95.275414 20 48ft 0kts
18-Jun-17 19:10 29.652083 -95.275414 20 48ft 0kts

Navigation Log

Ident Type
Flight plan parsing failed, navigation log unavailable